Time;durP1;ratioP1;P1;durP2;ratioP2;P2;SDS_P1;SDS_P2;PMS_P1;PMS_P2;Temp;Humidity;BMP_temperature;BMP_pressure;BME280_temperature;BME280_humidity;BME280_pressure;Samples;Min_cycle;Max_cycle;Signal;HPM_P1;HPM_P2
2023/06/12 00:01:17;;;;;;;4.20;3.80;;;19.90;99.90;;;;;;5115135;28;20293;-80
2023/06/12 00:03:43;;;;;;;4.83;4.37;;;19.80;99.90;;;;;;5115457;28;20187;-79
2023/06/12 00:06:10;;;;;;;4.20;3.40;;;19.80;99.90;;;;;;5116177;28;20428;-79
2023/06/12 00:08:41;;;;;;;3.53;3.23;;;19.80;99.90;;;;;;5115023;28;20492;-79
2023/06/12 00:11:09;;;;;;;5.83;4.23;;;19.80;99.90;;;;;;5116303;28;20896;-80
2023/06/12 00:13:36;;;;;;;4.70;4.13;;;19.70;99.90;;;;;;5116234;28;20404;-79
2023/06/12 00:16:02;;;;;;;7.90;4.43;;;19.70;99.90;;;;;;5116101;27;20442;-80
2023/06/12 00:18:28;;;;;;;4.57;4.17;;;19.70;99.90;;;;;;5116164;28;20509;-78
2023/06/12 00:20:53;;;;;;;4.23;3.83;;;19.60;99.90;;;;;;5116016;28;20444;-80
2023/06/12 00:23:19;;;;;;;4.40;3.63;;;19.60;99.90;;;;;;5114755;28;20179;-80
2023/06/12 00:25:45;;;;;;;4.90;4.40;;;19.60;99.90;;;;;;5114520;28;20238;-80
2023/06/12 00:28:10;;;;;;;5.20;4.80;;;19.50;99.90;;;;;;5114375;28;20204;-80
2023/06/12 00:30:36;;;;;;;4.23;3.87;;;19.50;99.90;;;;;;5115646;28;20191;-80
2023/06/12 00:33:01;;;;;;;4.57;4.17;;;19.40;99.90;;;;;;5114558;28;20231;-78
2023/06/12 00:35:28;;;;;;;4.57;4.17;;;19.40;99.90;;;;;;5115561;28;20565;-80
2023/06/12 00:37:55;;;;;;;5.23;4.73;;;19.40;99.90;;;;;;5114405;28;20225;-79
2023/06/12 00:40:20;;;;;;;5.10;4.30;;;19.30;99.90;;;;;;5114569;28;20476;-79
2023/06/12 00:42:49;;;;;;;4.53;3.93;;;19.30;99.90;;;;;;5115610;28;20922;-80
2023/06/12 00:45:16;;;;;;;4.90;4.50;;;19.20;99.90;;;;;;5115590;28;20663;-80
2023/06/12 00:47:46;;;;;;;5.37;4.70;;;19.20;99.90;;;;;;5113557;28;20525;-79
2023/06/12 00:50:13;;;;;;;4.57;4.17;;;19.20;99.90;;;;;;5115316;28;20441;-79
2023/06/12 00:52:44;;;;;;;4.50;4.10;;;19.20;99.90;;;;;;5116010;28;20409;-80
2023/06/12 00:55:11;;;;;;;4.50;4.10;;;19.10;99.90;;;;;;5115276;28;20829;-80
2023/06/12 00:57:38;;;;;;;6.23;4.57;;;19.10;99.90;;;;;;5114612;28;20436;-79
2023/06/12 01:00:07;;;;;;;4.53;4.13;;;19.10;99.90;;;;;;5115201;28;20947;-79
2023/06/12 01:02:38;;;;;;;5.80;4.07;;;19.10;99.90;;;;;;5114282;28;20935;-80
2023/06/12 01:05:10;;;;;;;4.13;3.73;;;19.10;99.90;;;;;;5115212;28;20463;-80
2023/06/12 01:07:58;;;;;;;4.07;3.60;;;19.10;99.90;;;;;;5115654;28;20766;-80
2023/06/12 01:10:44;;;;;;;4.53;4.13;;;19.20;99.90;;;;;;5114916;28;20498;-80
2023/06/12 01:13:11;;;;;;;5.60;4.53;;;19.10;99.90;;;;;;5115017;28;20489;-79
2023/06/12 01:15:38;;;;;;;5.00;4.17;;;19.20;99.90;;;;;;5114961;28;20422;-80
2023/06/12 01:18:07;;;;;;;4.17;3.77;;;19.10;99.90;;;;;;5114875;28;20452;-80
2023/06/12 01:20:34;;;;;;;5.40;4.37;;;19.10;99.90;;;;;;5114833;28;21000;-80
2023/06/12 01:23:15;;;;;;;5.53;4.27;;;19.10;99.90;;;;;;5113562;28;20531;-79
2023/06/12 01:26:03;;;;;;;4.10;3.70;;;19.10;99.90;;;;;;5114544;28;20510;-80
2023/06/12 01:28:38;;;;;;;4.70;3.80;;;19.10;99.90;;;;;;5113258;28;20572;-80
2023/06/12 01:31:14;;;;;;;7.50;3.67;;;19.10;99.90;;;;;;5114784;28;20433;-80
2023/06/12 01:33:44;;;;;;;3.90;3.50;;;19.00;99.90;;;;;;5114885;28;20482;-79
2023/06/12 01:36:15;;;;;;;7.00;3.80;;;19.00;99.90;;;;;;5114643;28;20441;-80
2023/06/12 01:38:43;;;;;;;4.33;3.90;;;19.00;99.90;;;;;;5113340;28;20438;-79
2023/06/12 01:41:10;;;;;;;4.20;3.80;;;19.00;99.90;;;;;;5114597;28;20528;-80
2023/06/12 01:43:36;;;;;;;4.30;3.90;;;19.00;99.90;;;;;;5114684;28;20981;-80
2023/06/12 01:46:03;;;;;;;6.10;3.73;;;18.90;99.90;;;;;;5113062;28;20441;-80
2023/06/12 01:48:29;;;;;;;3.73;3.43;;;18.90;99.90;;;;;;5112907;28;20834;-79
2023/06/12 01:50:54;;;;;;;3.43;3.13;;;18.90;99.90;;;;;;5114425;28;20430;-80
2023/06/12 01:53:21;;;;;;;3.70;3.40;;;18.80;99.90;;;;;;5113112;28;20218;-79
2023/06/12 01:55:49;;;;;;;4.77;4.20;;;18.80;99.90;;;;;;5114387;28;20711;-80
2023/06/12 01:58:15;;;;;;;5.63;4.60;;;18.80;99.90;;;;;;5113457;28;20437;-79
2023/06/12 02:00:41;;;;;;;4.20;3.73;;;18.70;99.90;;;;;;5112801;28;20981;-80
2023/06/12 02:03:07;;;;;;;5.60;4.27;;;18.70;99.90;;;;;;5112900;28;20189;-79
2023/06/12 02:05:33;;;;;;;4.10;3.70;;;18.70;99.90;;;;;;5114098;28;20430;-80
2023/06/12 02:07:58;;;;;;;4.10;3.50;;;18.70;99.90;;;;;;5113929;28;20576;-80
2023/06/12 02:10:24;;;;;;;3.87;3.57;;;18.60;99.90;;;;;;5113949;28;20219;-79
2023/06/12 02:12:50;;;;;;;3.83;3.50;;;18.60;99.90;;;;;;5114130;28;20207;-80
2023/06/12 02:15:15;;;;;;;4.63;3.50;;;18.60;99.90;;;;;;5112800;28;20189;-80
2023/06/12 02:17:41;;;;;;;4.03;3.13;;;18.60;99.90;;;;;;5113075;28;20440;-80
2023/06/12 02:20:07;;;;;;;4.07;3.67;;;18.60;99.90;;;;;;5112702;28;20289;-79
2023/06/12 02:22:33;;;;;;;4.00;3.60;;;18.60;99.90;;;;;;5114617;28;20177;-80
2023/06/12 02:24:58;;;;;;;3.37;2.90;;;18.50;99.90;;;;;;5113777;28;20453;-80
2023/06/12 02:27:24;;;;;;;4.53;3.00;;;18.50;99.90;;;;;;5112815;28;20649;-80
2023/06/12 02:29:50;;;;;;;4.73;3.27;;;18.50;99.90;;;;;;5113847;28;20648;-80
2023/06/12 02:32:15;;;;;;;4.30;3.50;;;18.50;99.90;;;;;;5114527;28;20500;-80
2023/06/12 02:34:41;;;;;;;5.00;2.80;;;18.50;99.90;;;;;;5112651;28;20181;-80
2023/06/12 02:37:08;;;;;;;3.77;3.43;;;18.40;99.90;;;;;;5112592;28;20225;-80
2023/06/12 02:39:34;;;;;;;3.07;2.77;;;18.40;99.90;;;;;;5112627;28;20181;-80
2023/06/12 02:42:00;;;;;;;3.87;3.47;;;18.40;99.90;;;;;;5114181;28;20408;-80
2023/06/12 02:44:26;;;;;;;3.33;3.10;;;18.40;99.90;;;;;;5113994;28;20760;-80
2023/06/12 02:46:56;;;;;;;5.93;3.37;;;18.40;99.90;;;;;;5095542;28;20426;-80
2023/06/12 02:49:24;;;;;;;3.50;3.20;;;18.40;99.90;;;;;;5113944;28;20733;-80
2023/06/12 02:51:50;;;;;;;4.83;3.30;;;18.30;99.90;;;;;;5112527;28;20452;-79
2023/06/12 02:54:16;;;;;;;2.90;2.70;;;18.30;99.90;;;;;;5113801;28;20431;-80
2023/06/12 02:56:45;;;;;;;3.43;3.10;;;18.20;99.90;;;;;;5112472;28;20239;-79
2023/06/12 02:59:17;;;;;;;3.70;3.20;;;18.20;99.90;;;;;;5113646;28;20475;-80
2023/06/12 03:01:43;;;;;;;3.80;3.00;;;18.10;99.90;;;;;;5112448;28;20432;-80
2023/06/12 03:04:21;;;;;;;3.30;2.90;;;18.10;99.90;;;;;;5112242;28;20429;-79
2023/06/12 03:06:51;;;;;;;3.57;3.30;;;18.10;99.90;;;;;;5112360;28;20976;-80
2023/06/12 03:09:18;;;;;;;4.43;3.23;;;18.30;99.90;;;;;;5113621;28;20884;-79
2023/06/12 03:11:45;;;;;;;3.20;2.90;;;18.50;99.90;;;;;;5117571;28;20514;-79
2023/06/12 03:14:12;;;;;;;4.37;3.00;;;18.80;99.90;;;;;;5117371;28;20467;-80
2023/06/12 03:16:38;;;;;;;5.33;3.20;;;19.00;99.90;;;;;;5117482;28;20437;-80
2023/06/12 03:19:04;;;;;;;4.00;3.30;;;19.10;99.90;;;;;;5117260;28;20412;-80
2023/06/12 03:21:30;;;;;;;3.10;2.80;;;19.30;99.90;;;;;;5116178;28;20488;-79
2023/06/12 03:23:56;;;;;;;3.60;2.70;;;19.40;99.90;;;;;;5117424;28;20205;-79
2023/06/12 03:26:22;;;;;;;4.70;2.80;;;19.50;99.90;;;;;;5117419;28;20226;-79
2023/06/12 03:28:50;;;;;;;3.60;2.63;;;19.50;99.90;;;;;;5115603;28;20475;-80
2023/06/12 03:31:16;;;;;;;3.60;3.30;;;19.60;99.90;;;;;;5117097;28;20439;-80
2023/06/12 03:33:41;;;;;;;4.80;2.97;;;19.70;99.90;;;;;;5117033;28;20506;-80
2023/06/12 03:36:07;;;;;;;5.10;3.13;;;19.70;99.90;;;;;;5117025;28;20492;-79
2023/06/12 03:38:33;;;;;;;3.70;3.30;;;19.80;99.90;;;;;;5116968;28;20658;-80
2023/06/12 03:40:58;;;;;;;3.03;2.70;;;19.80;99.90;;;;;;5117004;28;20198;-80
2023/06/12 03:43:24;;;;;;;4.50;2.70;;;19.80;99.90;;;;;;5116882;28;20186;-80
2023/06/12 03:45:50;;;;;;;3.17;2.90;;;19.90;99.90;;;;;;5116788;28;20689;-80
2023/06/12 03:48:15;;;;;;;3.10;2.80;;;19.90;99.90;;;;;;5116555;28;20263;-80
2023/06/12 03:50:41;;;;;;;4.20;3.33;;;20.00;99.90;;;;;;5116306;28;20488;-80
2023/06/12 03:53:07;;;;;;;3.60;2.83;;;20.00;99.90;;;;;;5116547;28;20194;-80
2023/06/12 03:55:34;;;;;;;3.67;3.27;;;20.00;99.90;;;;;;5116436;28;20202;-80
2023/06/12 03:58:01;;;;;;;5.37;2.93;;;20.00;99.90;;;;;;5115163;28;20200;-80
2023/06/12 04:00:26;;;;;;;3.50;2.90;;;20.10;99.90;;;;;;5116311;28;20505;-80
2023/06/12 04:02:54;;;;;;;4.40;3.50;;;20.10;99.90;;;;;;5115192;28;20871;-78
2023/06/12 04:05:20;;;;;;;4.73;3.53;;;20.10;99.90;;;;;;5116301;28;20189;-80
2023/06/12 04:07:46;;;;;;;3.30;3.00;;;20.10;99.90;;;;;;5116500;28;20415;-79
2023/06/12 04:10:12;;;;;;;4.60;3.40;;;20.10;99.90;;;;;;5116142;28;20900;-79
2023/06/12 04:16:36;;;;;;;2.73;2.53;;;20.10;99.90;;;;;;5116144;28;20217;-80
2023/06/12 04:19:03;;;;;;;3.43;2.53;;;20.10;99.90;;;;;;5116061;28;20410;-80
2023/06/12 04:21:30;;;;;;;3.30;2.90;;;20.10;99.90;;;;;;5115277;27;20424;-79
2023/06/12 04:23:57;;;;;;;4.50;2.57;;;20.10;99.90;;;;;;5115056;28;20411;-81
2023/06/12 04:26:24;;;;;;;5.27;3.23;;;20.10;99.90;;;;;;5114461;28;20489;-80
2023/06/12 04:28:50;;;;;;;3.30;3.00;;;20.10;99.90;;;;;;5115507;28;20493;-80
2023/06/12 04:31:16;;;;;;;5.83;3.10;;;20.10;99.90;;;;;;5105615;28;20535;-80
2023/06/12 04:33:42;;;;;;;3.00;2.80;;;20.10;99.90;;;;;;5094155;28;20511;-81
2023/06/12 04:36:13;;;;;;;768.47;338.60;;;20.20;99.90;;;;;;5094007;28;20533;-82
2023/06/12 04:38:39;;;;;;;11.07;6.40;;;20.10;99.90;;;;;;5103272;28;20171;-76
2023/06/12 04:41:05;;;;;;;3.30;3.00;;;20.10;99.90;;;;;;5114296;28;20975;-81
2023/06/12 04:43:32;;;;;;;5.40;2.90;;;20.20;99.90;;;;;;5115657;28;20178;-80
2023/06/12 04:45:57;;;;;;;7.57;2.90;;;20.20;99.90;;;;;;5115557;28;20454;-81
2023/06/12 04:48:23;;;;;;;3.90;3.17;;;20.20;99.90;;;;;;5113993;28;20471;-81
2023/06/12 04:50:51;;;;;;;3.20;2.90;;;20.20;99.90;;;;;;5114545;28;20236;-85
2023/06/12 04:53:29;;;;;;;3.83;3.40;;;20.20;99.90;;;;;;5108264;28;20454;-80
2023/06/12 04:55:58;;;;;;;3.87;3.40;;;20.20;99.90;;;;;;5113933;28;20450;-79
2023/06/12 04:58:24;;;;;;;3.27;3.00;;;20.20;99.90;;;;;;5113755;28;20462;-87
2023/06/12 05:00:50;;;;;;;3.70;2.80;;;20.20;99.90;;;;;;5110834;28;20446;-87
2023/06/12 05:03:17;;;;;;;3.47;3.17;;;20.20;99.90;;;;;;5113231;28;20489;-84
2023/06/12 05:05:46;;;;;;;3.50;3.20;;;20.20;99.90;;;;;;5107530;28;20458;-79
2023/06/12 05:08:13;;;;;;;4.90;3.20;;;20.20;99.90;;;;;;5101733;28;20552;-84
2023/06/12 05:10:40;;;;;;;4.10;3.63;;;20.10;99.90;;;;;;5114335;28;20500;-79
2023/06/12 05:13:06;;;;;;;5.63;3.50;;;20.10;99.90;;;;;;5103952;28;20441;-84
2023/06/12 05:15:32;;;;;;;3.53;3.23;;;20.10;99.90;;;;;;5098312;28;20449;-84
2023/06/12 05:17:58;;;;;;;4.37;3.53;;;20.20;99.90;;;;;;5107630;28;20423;-80
2023/06/12 05:20:23;;;;;;;5.57;2.97;;;20.20;99.90;;;;;;5104670;28;20277;-79
2023/06/12 05:22:50;;;;;;;3.20;3.00;;;20.20;99.90;;;;;;5096060;28;21031;-83
2023/06/12 05:25:16;;;;;;;3.30;2.90;;;20.30;99.90;;;;;;5094368;28;20238;-78
2023/06/12 05:27:43;;;;;;;3.27;2.97;;;20.30;99.90;;;;;;5107803;28;20438;-79
2023/06/12 05:30:09;;;;;;;3.67;3.10;;;20.20;99.90;;;;;;5105596;28;20318;-79
2023/06/12 05:32:35;;;;;;;5.30;2.83;;;20.30;99.90;;;;;;5108744;28;20438;-84
2023/06/12 05:35:02;;;;;;;5.57;3.33;;;20.20;99.90;;;;;;5102748;28;20447;-84
2023/06/12 05:37:28;;;;;;;3.50;3.17;;;20.20;99.90;;;;;;5107203;27;20188;-83
2023/06/12 05:39:54;;;;;;;4.00;2.60;;;20.30;99.90;;;;;;5102181;28;20842;-88
2023/06/12 05:42:19;;;;;;;2.80;2.60;;;20.30;99.90;;;;;;5091111;28;20187;-87
2023/06/12 05:44:48;;;;;;;7.63;2.70;;;20.30;99.90;;;;;;5092198;28;20176;-87
2023/06/12 05:47:14;;;;;;;7.07;2.97;;;20.30;99.90;;;;;;5096511;28;20545;-87
2023/06/12 05:49:39;;;;;;;3.00;2.70;;;20.20;99.90;;;;;;5101387;28;20541;-79
2023/06/12 05:52:06;;;;;;;4.73;3.13;;;20.30;99.90;;;;;;5100048;28;20429;-80
2023/06/12 05:54:31;;;;;;;3.50;3.00;;;20.30;99.90;;;;;;5102220;28;20917;-80
2023/06/12 05:56:57;;;;;;;3.03;2.83;;;20.40;99.90;;;;;;5094873;28;20493;-86
2023/06/12 05:59:25;;;;;;;3.77;3.00;;;20.30;99.90;;;;;;5098674;28;20699;-79
2023/06/12 06:01:51;;;;;;;4.07;3.67;;;20.40;99.90;;;;;;5092236;28;20176;-87
2023/06/12 06:04:17;;;;;;;3.80;2.90;;;20.40;99.90;;;;;;5093871;28;20423;-80
2023/06/12 06:06:43;;;;;;;3.50;2.87;;;20.40;99.90;;;;;;5100434;28;20444;-87
2023/06/12 06:09:09;;;;;;;4.10;2.93;;;20.50;99.90;;;;;;5099826;28;20470;-79
2023/06/12 06:11:35;;;;;;;3.03;2.60;;;20.50;99.90;;;;;;5105894;28;20212;-80
2023/06/12 06:14:01;;;;;;;6.10;3.13;;;20.50;99.90;;;;;;5095581;28;20196;-86
2023/06/12 06:16:27;;;;;;;3.13;2.90;;;20.50;99.90;;;;;;5107280;28;20661;-87
2023/06/12 06:18:53;;;;;;;3.20;2.90;;;20.60;99.90;;;;;;5096285;28;20423;-86
2023/06/12 06:21:18;;;;;;;4.50;2.73;;;20.60;99.90;;;;;;5094991;28;20954;-85
2023/06/12 06:23:45;;;;;;;2.63;2.43;;;20.60;99.90;;;;;;5097177;28;20218;-82
2023/06/12 06:26:11;;;;;;;3.43;2.87;;;20.60;99.90;;;;;;5097604;28;20231;-79
2023/06/12 06:28:36;;;;;;;3.40;2.33;;;20.60;99.90;;;;;;5099031;28;20822;-86
2023/06/12 06:31:03;;;;;;;5.07;2.67;;;20.60;99.90;;;;;;5098881;28;20203;-79
2023/06/12 06:33:30;;;;;;;4.20;3.30;;;20.70;99.90;;;;;;5100632;28;20180;-87
2023/06/12 06:35:56;;;;;;;5.33;2.73;;;20.70;99.90;;;;;;5098318;28;20808;-79
2023/06/12 06:38:24;;;;;;;4.07;2.80;;;20.70;99.90;;;;;;5103638;28;20469;-86
2023/06/12 06:40:51;;;;;;;2.90;2.70;;;20.70;99.90;;;;;;5098480;28;20200;-79
2023/06/12 06:43:16;;;;;;;3.83;3.10;;;20.80;99.90;;;;;;5097756;28;20421;-79
2023/06/12 06:45:42;;;;;;;3.40;2.23;;;20.80;99.90;;;;;;5091599;28;20447;-85
2023/06/12 06:48:08;;;;;;;5.93;2.87;;;20.90;99.90;;;;;;5102884;28;20242;-80
2023/06/12 06:50:34;;;;;;;3.73;2.27;;;20.90;99.90;;;;;;5100896;28;20588;-87
2023/06/12 06:53:02;;;;;;;129.07;75.63;;;21.00;99.90;;;;;;5099757;28;20417;-84
2023/06/12 06:55:27;;;;;;;3.03;2.80;;;21.00;99.90;;;;;;5094915;28;20620;-80
2023/06/12 06:57:54;;;;;;;2.53;2.33;;;21.10;99.90;;;;;;5088870;28;20461;-85
2023/06/12 07:00:21;;;;;;;4.07;2.70;;;21.10;99.90;;;;;;5090797;28;20730;-79
2023/06/12 07:02:47;;;;;;;3.30;2.47;;;21.20;99.90;;;;;;5087416;28;20432;-87
2023/06/12 07:05:14;;;;;;;3.03;2.40;;;21.20;99.90;;;;;;5090345;28;20453;-78
2023/06/12 07:07:40;;;;;;;2.43;2.10;;;21.30;99.90;;;;;;5084251;28;20427;-86
2023/06/12 07:10:07;;;;;;;2.90;2.50;;;21.30;99.90;;;;;;5089391;28;20479;-86
2023/06/12 07:12:33;;;;;;;2.60;2.40;;;21.40;99.90;;;;;;5089361;28;20932;-87
2023/06/12 07:14:59;;;;;;;3.10;2.80;;;21.40;99.90;;;;;;5087497;28;21300;-78
2023/06/12 07:17:25;;;;;;;4.40;3.10;;;21.40;99.90;;;;;;5093926;28;20808;-79
2023/06/12 07:19:51;;;;;;;2.90;2.60;;;21.50;99.90;;;;;;5108670;28;20462;-88
2023/06/12 07:22:17;;;;;;;3.33;2.60;;;21.50;99.90;;;;;;5102292;28;20180;-88
2023/06/12 07:24:42;;;;;;;3.93;2.73;;;21.50;99.90;;;;;;5097459;28;20332;-86
2023/06/12 07:27:08;;;;;;;3.93;2.67;;;21.50;99.90;;;;;;5097202;28;20275;-87
2023/06/12 07:29:34;;;;;;;6.20;3.00;;;21.50;99.90;;;;;;5094937;28;20258;-87
2023/06/12 07:32:00;;;;;;;4.70;2.87;;;21.60;99.90;;;;;;5100362;28;20535;-88
2023/06/12 07:34:26;;;;;;;3.70;2.83;;;21.60;99.90;;;;;;5103893;28;20495;-87
2023/06/12 07:36:52;;;;;;;4.03;2.93;;;21.70;99.90;;;;;;5100911;28;20176;-87
2023/06/12 07:39:18;;;;;;;3.17;2.70;;;21.70;99.90;;;;;;5103388;28;20184;-86
2023/06/12 07:41:44;;;;;;;3.30;2.73;;;21.80;99.90;;;;;;5103275;28;20592;-79
2023/06/12 07:44:13;;;;;;;3.43;2.70;;;21.80;99.90;;;;;;5098659;28;20423;-79
2023/06/12 07:46:41;;;;;;;4.30;2.93;;;21.90;99.90;;;;;;5096851;28;20444;-89
2023/06/12 07:49:06;;;;;;;4.53;3.60;;;21.90;99.90;;;;;;5098557;28;20464;-78
2023/06/12 07:51:32;;;;;;;2.50;2.20;;;21.90;99.90;;;;;;5098075;28;20461;-87
2023/06/12 07:53:58;;;;;;;375.37;215.83;;;21.90;99.90;;;;;;5101623;28;20556;-87
2023/06/12 07:56:24;;;;;;;2.90;2.60;;;22.10;99.90;;;;;;5100700;28;20196;-79
2023/06/12 07:58:51;;;;;;;3.73;2.67;;;22.10;99.90;;;;;;5102131;28;20188;-91
2023/06/12 08:01:17;;;;;;;3.67;2.43;;;22.10;99.90;;;;;;5097560;28;20941;-79
2023/06/12 08:03:43;;;;;;;4.90;2.63;;;22.10;99.90;;;;;;5107153;28;20504;-80
2023/06/12 08:06:11;;;;;;;3.13;2.43;;;22.10;99.90;;;;;;5108077;28;20466;-80
2023/06/12 08:08:45;;;;;;;6.83;2.50;;;22.20;99.90;;;;;;5100842;28;20469;-88
2023/06/12 08:11:11;;;;;;;5.43;2.53;;;22.20;99.90;;;;;;5108241;28;20984;-87
2023/06/12 08:13:37;;;;;;;3.13;2.40;;;22.20;99.90;;;;;;5100876;28;20473;-87
2023/06/12 08:16:03;;;;;;;5.87;2.80;;;22.20;99.90;;;;;;5101296;28;20459;-88
2023/06/12 08:18:29;;;;;;;5.70;2.27;;;22.30;99.90;;;;;;5106568;28;20418;-88
2023/06/12 08:20:55;;;;;;;3.20;2.60;;;22.40;99.90;;;;;;5109381;28;20459;-88
2023/06/12 08:23:20;;;;;;;3.33;2.50;;;22.40;99.90;;;;;;5111668;28;20191;-77
2023/06/12 08:25:46;;;;;;;2.93;2.50;;;22.50;99.90;;;;;;5107485;28;20251;-86
2023/06/12 08:28:12;;;;;;;2.80;2.50;;;22.50;99.90;;;;;;5100664;28;20188;-87
2023/06/12 08:30:37;;;;;;;2.57;2.37;;;22.50;99.90;;;;;;5101821;28;20283;-88
2023/06/12 08:33:03;;;;;;;3.27;3.07;;;22.60;99.90;;;;;;5101122;28;20669;-85
2023/06/12 08:35:29;;;;;;;3.70;2.43;;;22.60;99.90;;;;;;5099341;28;20207;-78
2023/06/12 08:37:56;;;;;;;3.50;2.47;;;22.60;99.90;;;;;;5101736;28;20784;-86
2023/06/12 08:40:22;;;;;;;3.60;2.50;;;22.70;99.90;;;;;;5102522;28;20525;-78
2023/06/12 08:42:50;;;;;;;3.10;2.70;;;22.70;99.90;;;;;;5096147;28;20476;-87
2023/06/12 08:45:18;;;;;;;5.73;2.67;;;22.70;99.90;;;;;;5103995;28;21101;-91
2023/06/12 08:47:47;;;;;;;3.00;2.40;;;22.70;99.90;;;;;;5093682;28;20489;-90
2023/06/12 08:50:16;;;;;;;2.57;2.20;;;22.80;99.90;;;;;;5107102;28;20585;-79
2023/06/12 08:52:42;;;;;;;2.30;2.00;;;22.80;99.90;;;;;;5109420;28;20471;-79
2023/06/12 08:55:09;;;;;;;2.77;2.50;;;22.80;99.90;;;;;;5106010;28;20538;-79
2023/06/12 08:57:38;;;;;;;4.77;2.50;;;22.90;99.90;;;;;;5090897;28;20437;-91
2023/06/12 09:00:12;;;;;;;3.53;2.60;;;23.10;99.90;;;;;;5111519;28;20505;-79
2023/06/12 09:02:50;;;;;;;2.10;1.93;;;23.00;99.90;;;;;;5099371;28;20448;-79
2023/06/12 09:05:37;;;;;;;3.47;2.63;;;23.10;99.90;;;;;;5088929;28;20453;-79
2023/06/12 09:08:04;;;;;;;4.03;3.00;;;23.20;99.90;;;;;;5091821;28;20486;-79
2023/06/12 09:10:33;;;;;;;3.67;2.03;;;23.20;99.90;;;;;;5105041;28;20969;-90
2023/06/12 09:13:01;;;;;;;4.00;2.50;;;23.20;99.90;;;;;;5109984;28;20413;-88
2023/06/12 09:15:27;;;;;;;3.30;2.77;;;23.30;99.90;;;;;;5102178;28;20488;-80
2023/06/12 09:17:55;;;;;;;4.80;2.80;;;23.30;99.90;;;;;;5100569;28;20473;-78
2023/06/12 09:20:26;;;;;;;3.90;2.37;;;23.30;99.90;;;;;;5092123;28;20460;-79
2023/06/12 09:22:52;;;;;;;4.33;2.47;;;23.50;99.90;;;;;;5102320;28;20900;-79
2023/06/12 09:25:21;;;;;;;2.73;2.53;;;23.60;99.90;;;;;;5098943;28;20504;-88
2023/06/12 09:27:47;;;;;;;3.13;2.83;;;23.80;99.90;;;;;;5102203;28;20199;-88
2023/06/12 09:30:13;;;;;;;3.57;2.30;;;23.90;99.90;;;;;;5110666;28;20987;-88
2023/06/12 09:32:45;;;;;;;2.50;2.30;;;23.90;99.90;;;;;;5105750;27;20782;-79
2023/06/12 09:35:12;;;;;;;5.70;2.50;;;24.00;99.90;;;;;;5109107;28;20823;-89
2023/06/12 09:37:39;;;;;;;3.63;2.53;;;24.10;99.90;;;;;;5109646;28;20559;-92
2023/06/12 09:40:11;;;;;;;6.03;2.70;;;24.10;99.90;;;;;;5096869;28;20791;-86
2023/06/12 09:42:38;;;;;;;3.30;2.10;;;24.10;99.90;;;;;;5106916;28;20438;-79
2023/06/12 09:45:20;;;;;;;4.03;2.57;;;24.20;99.90;;;;;;5104956;28;20530;-91
2023/06/12 09:47:51;;;;;;;5.60;3.07;;;24.30;99.90;;;;;;5096264;28;20443;-88
2023/06/12 09:50:22;;;;;;;440.03;234.00;;;24.30;99.90;;;;;;5102580;28;20479;-89
2023/06/12 09:52:48;;;;;;;4.53;3.27;;;24.30;99.90;;;;;;5125477;27;20420;-89
2023/06/12 09:55:17;;;;;;;2.73;2.53;;;24.30;99.90;;;;;;5099120;28;20448;-88
2023/06/12 09:57:48;;;;;;;5.00;2.13;;;24.40;99.90;;;;;;5105304;28;20463;-89
2023/06/12 10:00:16;;;;;;;2.10;1.90;;;24.40;99.90;;;;;;5101205;28;20804;-79
2023/06/12 10:02:50;;;;;;;2.57;2.30;;;24.40;99.90;;;;;;5101950;28;20455;-79
2023/06/12 10:05:25;;;;;;;3.50;2.80;;;24.40;99.90;;;;;;5100854;28;20456;-79
2023/06/12 10:07:53;;;;;;;2.40;2.10;;;24.20;99.90;;;;;;5105677;28;20481;-79
2023/06/12 10:10:21;;;;;;;3.93;3.00;;;24.20;99.90;;;;;;5108017;28;20463;-84
2023/06/12 10:12:48;;;;;;;3.40;2.67;;;24.10;99.90;;;;;;5100520;28;20419;-80
2023/06/12 10:15:15;;;;;;;2.20;2.00;;;24.10;99.90;;;;;;5110793;28;20439;-80
2023/06/12 10:17:41;;;;;;;4.13;2.43;;;24.00;99.90;;;;;;5109519;28;20796;-80
2023/06/12 10:20:09;;;;;;;2.50;2.17;;;23.80;99.90;;;;;;5113685;28;20518;-81
2023/06/12 10:22:35;;;;;;;4.23;2.23;;;23.80;99.90;;;;;;5116361;28;20968;-78
2023/06/12 10:25:02;;;;;;;3.13;2.30;;;23.80;99.90;;;;;;5110994;28;20463;-79
2023/06/12 10:27:29;;;;;;;2.80;2.20;;;23.80;99.90;;;;;;5112155;28;20415;-79
2023/06/12 10:29:57;;;;;;;3.40;2.53;;;23.70;99.90;;;;;;5112220;28;20587;-79
2023/06/12 10:32:23;;;;;;;3.00;2.57;;;23.70;99.90;;;;;;5105397;28;20433;-81
2023/06/12 10:34:54;;;;;;;3.10;2.10;;;23.70;99.90;;;;;;5112086;28;20450;-81
2023/06/12 10:37:46;;;;;;;2.80;1.80;;;23.80;99.90;;;;;;5110796;28;20431;-79
2023/06/12 10:40:18;;;;;;;3.73;2.00;;;23.70;99.90;;;;;;5104410;28;20453;-80
2023/06/12 10:42:53;;;;;;;2.50;2.30;;;23.60;99.90;;;;;;5096313;28;20474;-79
2023/06/12 10:45:22;;;;;;;5.57;2.57;;;23.70;99.90;;;;;;5097210;28;20453;-80
2023/06/12 10:48:05;;;;;;;4.50;2.13;;;23.60;99.90;;;;;;5102341;28;20474;-87
2023/06/12 10:50:33;;;;;;;4.17;2.43;;;23.60;99.90;;;;;;5093618;28;20511;-87
2023/06/12 10:53:08;;;;;;;6.77;2.60;;;23.60;99.90;;;;;;5095008;28;20435;-87
2023/06/12 10:55:35;;;;;;;4.27;2.50;;;23.60;99.90;;;;;;5094679;28;20451;-88
2023/06/12 10:58:11;;;;;;;4.60;2.47;;;23.60;99.90;;;;;;5096073;28;20412;-86
2023/06/12 11:00:48;;;;;;;6.73;2.67;;;23.60;99.90;;;;;;5091303;28;20467;-81
2023/06/12 11:03:21;;;;;;;3.47;2.30;;;23.60;99.90;;;;;;5095256;27;20501;-85
2023/06/12 11:06:00;;;;;;;2.30;2.10;;;23.70;99.90;;;;;;5100102;28;20463;-81
2023/06/12 11:08:30;;;;;;;3.57;2.83;;;23.70;99.90;;;;;;5102397;28;21028;-81
2023/06/12 11:10:56;;;;;;;3.00;2.40;;;23.70;99.90;;;;;;5094814;28;20463;-86
2023/06/12 11:13:26;;;;;;;2.20;2.03;;;23.70;99.90;;;;;;5092347;28;20440;-80
2023/06/12 11:15:53;;;;;;;4.47;2.40;;;23.80;99.90;;;;;;5086814;28;20515;-79
2023/06/12 11:18:19;;;;;;;4.63;2.60;;;23.90;99.90;;;;;;5105653;28;20427;-89
2023/06/12 11:20:55;;;;;;;2.60;2.40;;;24.00;99.90;;;;;;5105468;28;20459;-89
2023/06/12 11:23:26;;;;;;;2.50;2.30;;;24.20;99.90;;;;;;5109576;28;20510;-79
2023/06/12 11:25:54;;;;;;;2.90;2.37;;;24.20;99.90;;;;;;5102453;28;20708;-80
2023/06/12 11:28:23;;;;;;;3.20;2.70;;;24.30;99.90;;;;;;5103486;28;20419;-91
2023/06/12 11:31:01;;;;;;;2.60;2.40;;;24.30;99.90;;;;;;5102994;28;20460;-79
2023/06/12 11:33:27;;;;;;;2.57;2.37;;;24.30;99.90;;;;;;5102998;28;20437;-90
2023/06/12 11:35:58;;;;;;;3.63;2.40;;;24.40;99.90;;;;;;5102352;28;20519;-92
2023/06/12 11:38:23;;;;;;;4.83;3.20;;;24.40;99.90;;;;;;5099505;28;20423;-91
2023/06/12 11:40:53;;;;;;;4.50;2.63;;;24.40;99.90;;;;;;5092441;28;20513;-78
2023/06/12 11:43:21;;;;;;;2.63;2.43;;;24.40;99.90;;;;;;5099475;28;20210;-91
2023/06/12 11:45:48;;;;;;;3.20;2.50;;;24.40;99.90;;;;;;5098385;28;20474;-89
2023/06/12 11:48:16;;;;;;;2.33;2.07;;;24.40;99.90;;;;;;5095301;28;20480;-90
2023/06/12 11:50:45;;;;;;;5.83;2.43;;;24.40;99.90;;;;;;5105456;28;20562;-91
2023/06/12 11:53:12;;;;;;;5.73;2.60;;;24.50;99.90;;;;;;5103111;28;20466;-79
2023/06/12 11:55:38;;;;;;;4.80;2.77;;;24.50;99.90;;;;;;5104052;28;20444;-89
2023/06/12 11:58:07;;;;;;;4.63;2.77;;;24.50;99.90;;;;;;5108142;28;20427;-80
2023/06/12 12:00:34;;;;;;;3.07;2.20;;;24.40;99.90;;;;;;5097519;28;20239;-80
2023/06/12 12:03:02;;;;;;;3.93;2.70;;;24.40;99.90;;;;;;5106485;28;20432;-80
2023/06/12 12:05:34;;;;;;;3.20;2.63;;;24.40;99.90;;;;;;5105536;28;20475;-92
2023/06/12 12:08:04;;;;;;;3.70;3.13;;;24.40;99.90;;;;;;5101563;28;20449;-81
2023/06/12 12:10:40;;;;;;;2.60;2.40;;;24.40;99.90;;;;;;5102438;28;20759;-78
2023/06/12 12:13:06;;;;;;;2.50;2.30;;;24.40;99.90;;;;;;5102848;28;20444;-91
2023/06/12 12:15:40;;;;;;;3.30;2.47;;;24.50;99.90;;;;;;5100334;28;20520;-93
2023/06/12 12:18:19;;;;;;;2.77;2.00;;;24.50;99.90;;;;;;5096025;28;20431;-92
2023/06/12 12:20:49;;;;;;;2.80;2.60;;;24.60;99.90;;;;;;5094484;28;20464;-81
2023/06/12 12:23:14;;;;;;;2.70;2.50;;;24.50;99.90;;;;;;5099675;28;20439;-78
2023/06/12 12:25:41;;;;;;;2.20;2.10;;;24.60;99.90;;;;;;5099771;28;20495;-90
2023/06/12 12:28:07;;;;;;;2.80;2.47;;;24.60;99.90;;;;;;5097812;28;20497;-93
2023/06/12 12:30:33;;;;;;;5.47;2.60;;;24.60;99.90;;;;;;5102333;28;20454;-81
2023/06/12 12:32:59;;;;;;;6.80;3.90;;;24.70;99.90;;;;;;5091808;28;20432;-81
2023/06/12 12:35:26;;;;;;;3.40;2.43;;;24.70;99.90;;;;;;5099398;28;20444;-94
2023/06/12 12:37:54;;;;;;;4.53;2.77;;;24.60;99.90;;;;;;5102480;28;20264;-81
2023/06/12 12:40:21;;;;;;;4.37;2.47;;;24.60;99.90;;;;;;5104015;28;20818;-93
2023/06/12 12:42:47;;;;;;;2.73;2.40;;;24.60;99.90;;;;;;5105909;28;20439;-92
2023/06/12 12:45:16;;;;;;;2.67;2.43;;;24.60;99.90;;;;;;5107682;28;20482;-93
2023/06/12 12:47:49;;;;;;;4.03;2.80;;;24.60;99.90;;;;;;5107043;28;20454;-81
2023/06/12 12:50:19;;;;;;;4.47;2.17;;;24.50;99.90;;;;;;5107363;28;20861;-92
2023/06/12 12:52:46;;;;;;;2.90;2.10;;;24.50;99.90;;;;;;5110633;28;20917;-90